Terminal Aerodrome Forecast
Issued by NWS

Home | Current Version | Previous Version | Text Only | Print | Product List | Glossary On
Versions: 1 2 3 4 5 6 7 8 9 10 11 12 13 14 15 16 17 18 19 20 21 22 23 24 25 26 27 28 29
127
FTUS43 KDVN 160844 AAA
TAFCID
TAF AMD
KCID 160844Z 1609/1706 31010KT P6SM SCT200
     FM161100 32009KT P6SM BKN017
     FM161500 36005KT P6SM FEW250
     FM161900 12005KT P6SM SCT250=

USA.gov is the U.S. government's official web portal to all federal, state and local government web resources and services.